sensor_id;sensor_type;location;lat;lon;timestamp;pressure;altitude;pressure_sealevel;temperature;humidity
59391;BME280;53405;57.012;40.984;2023-07-16T00:00:09;99644.44;;;16.05;85.76
59391;BME280;53405;57.012;40.984;2023-07-16T00:02:38;99641.56;;;16.07;85.93
59391;BME280;53405;57.012;40.984;2023-07-16T00:05:08;99643.53;;;16.12;85.63
59391;BME280;53405;57.012;40.984;2023-07-16T00:07:36;99654.59;;;16.08;85.38
59391;BME280;53405;57.012;40.984;2023-07-16T00:10:04;99651.13;;;16.08;85.61
59391;BME280;53405;57.012;40.984;2023-07-16T00:12:31;99659.09;;;16.08;85.42
59391;BME280;53405;57.012;40.984;2023-07-16T00:14:59;99657.72;;;16.05;85.59
59391;BME280;53405;57.012;40.984;2023-07-16T00:17:30;99653.41;;;16.04;85.54
59391;BME280;53405;57.012;40.984;2023-07-16T00:19:58;99658.16;;;16.02;85.37
59391;BME280;53405;57.012;40.984;2023-07-16T00:22:25;99650.53;;;15.87;86.39
59391;BME280;53405;57.012;40.984;2023-07-16T00:24:53;99654.59;;;15.90;86.38
59391;BME280;53405;57.012;40.984;2023-07-16T00:27:20;99658.41;;;15.76;86.90
59391;BME280;53405;57.012;40.984;2023-07-16T00:29:48;99655.13;;;15.80;86.85
59391;BME280;53405;57.012;40.984;2023-07-16T00:32:16;99659.78;;;15.85;86.52
59391;BME280;53405;57.012;40.984;2023-07-16T00:34:44;99655.75;;;15.76;87.17
59391;BME280;53405;57.012;40.984;2023-07-16T00:37:12;99666.31;;;15.82;86.94
59391;BME280;53405;57.012;40.984;2023-07-16T00:39:40;99667.50;;;15.86;86.86
59391;BME280;53405;57.012;40.984;2023-07-16T00:42:08;99656.50;;;15.83;86.44
59391;BME280;53405;57.012;40.984;2023-07-16T00:44:35;99661.38;;;15.86;86.61
59391;BME280;53405;57.012;40.984;2023-07-16T00:47:03;99663.81;;;15.87;86.24
59391;BME280;53405;57.012;40.984;2023-07-16T00:49:31;99658.56;;;15.81;86.77
59391;BME280;53405;57.012;40.984;2023-07-16T00:52:00;99663.22;;;15.85;86.30
59391;BME280;53405;57.012;40.984;2023-07-16T00:54:29;99671.25;;;15.79;87.01
59391;BME280;53405;57.012;40.984;2023-07-16T00:56:58;99664.69;;;15.81;86.84
59391;BME280;53405;57.012;40.984;2023-07-16T00:59:26;99666.09;;;15.84;86.66
59391;BME280;53405;57.012;40.984;2023-07-16T01:01:53;99670.97;;;15.87;86.42
59391;BME280;53405;57.012;40.984;2023-07-16T01:04:22;99656.34;;;15.78;86.83
59391;BME280;53405;57.012;40.984;2023-07-16T01:06:56;99664.09;;;15.79;86.24
59391;BME280;53405;57.012;40.984;2023-07-16T01:09:25;99667.81;;;15.71;86.81
59391;BME280;53405;57.012;40.984;2023-07-16T01:11:53;99663.94;;;15.74;86.56
59391;BME280;53405;57.012;40.984;2023-07-16T01:14:22;99668.47;;;15.67;87.23
59391;BME280;53405;57.012;40.984;2023-07-16T01:16:50;99660.28;;;15.68;87.07
59391;BME280;53405;57.012;40.984;2023-07-16T01:19:22;99666.66;;;15.67;87.19
59391;BME280;53405;57.012;40.984;2023-07-16T01:30:59;99676.63;;;15.72;86.75
59391;BME280;53405;57.012;40.984;2023-07-16T01:33:28;99671.03;;;15.80;86.44
59391;BME280;53405;57.012;40.984;2023-07-16T01:35:57;99646.50;;;15.60;86.44
59391;BME280;53405;57.012;40.984;2023-07-16T01:38:26;99674.53;;;15.74;86.97
59391;BME280;53405;57.012;40.984;2023-07-16T01:40:54;99670.91;;;15.68;87.09
59391;BME280;53405;57.012;40.984;2023-07-16T01:43:22;99676.41;;;15.74;86.79
59391;BME280;53405;57.012;40.984;2023-07-16T01:45:49;99677.31;;;15.86;86.49
59391;BME280;53405;57.012;40.984;2023-07-16T01:48:33;99680.44;;;15.76;86.62
59391;BME280;53405;57.012;40.984;2023-07-16T01:51:02;99682.91;;;15.78;86.49
59391;BME280;53405;57.012;40.984;2023-07-16T01:53:30;99671.78;;;15.87;85.87
59391;BME280;53405;57.012;40.984;2023-07-16T01:56:01;99690.75;;;15.91;85.95
59391;BME280;53405;57.012;40.984;2023-07-16T01:58:29;99689.56;;;15.87;85.46
59391;BME280;53405;57.012;40.984;2023-07-16T02:00:58;99685.94;;;15.81;86.32
59391;BME280;53405;57.012;40.984;2023-07-16T02:03:26;99698.94;;;15.89;85.72
59391;BME280;53405;57.012;40.984;2023-07-16T02:05:53;99698.50;;;15.93;85.63
59391;BME280;53405;57.012;40.984;2023-07-16T02:08:21;99696.72;;;15.86;85.55
59391;BME280;53405;57.012;40.984;2023-07-16T02:10:49;99701.81;;;15.88;85.56
59391;BME280;53405;57.012;40.984;2023-07-16T02:13:17;99700.97;;;15.87;86.04
59391;BME280;53405;57.012;40.984;2023-07-16T02:15:45;99712.44;;;15.88;86.05
59391;BME280;53405;57.012;40.984;2023-07-16T02:18:14;99706.63;;;15.72;86.26
59391;BME280;53405;57.012;40.984;2023-07-16T02:21:02;99708.91;;;15.94;85.48
59391;BME280;53405;57.012;40.984;2023-07-16T02:23:31;99713.00;;;15.90;85.57
59391;BME280;53405;57.012;40.984;2023-07-16T02:25:59;99716.66;;;15.96;85.26
59391;BME280;53405;57.012;40.984;2023-07-16T02:28:26;99715.97;;;15.82;85.91
59391;BME280;53405;57.012;40.984;2023-07-16T02:30:54;99690.09;;;15.70;85.78
59391;BME280;53405;57.012;40.984;2023-07-16T02:33:22;99720.69;;;15.98;85.59
59391;BME280;53405;57.012;40.984;2023-07-16T02:35:51;99722.75;;;15.96;85.36
59391;BME280;53405;57.012;40.984;2023-07-16T02:38:19;99721.09;;;16.02;85.10
59391;BME280;53405;57.012;40.984;2023-07-16T02:40:48;99724.84;;;15.94;85.60
59391;BME280;53405;57.012;40.984;2023-07-16T02:43:15;99724.53;;;16.02;85.33
59391;BME280;53405;57.012;40.984;2023-07-16T02:45:47;99724.00;;;15.94;85.72
59391;BME280;53405;57.012;40.984;2023-07-16T02:48:15;99722.31;;;15.99;85.66
59391;BME280;53405;57.012;40.984;2023-07-16T02:50:43;99726.06;;;15.92;86.35
59391;BME280;53405;57.012;40.984;2023-07-16T02:53:11;99726.44;;;15.95;85.98
59391;BME280;53405;57.012;40.984;2023-07-16T02:55:38;99727.78;;;16.04;85.59
59391;BME280;53405;57.012;40.984;2023-07-16T02:58:06;99724.88;;;15.87;85.78
59391;BME280;53405;57.012;40.984;2023-07-16T03:00:34;99725.50;;;15.89;85.72
59391;BME280;53405;57.012;40.984;2023-07-16T03:03:02;99732.41;;;15.90;85.63
59391;BME280;53405;57.012;40.984;2023-07-16T03:05:30;99742.44;;;15.88;85.58
59391;BME280;53405;57.012;40.984;2023-07-16T03:07:58;99741.72;;;16.00;85.08
59391;BME280;53405;57.012;40.984;2023-07-16T03:10:28;99745.28;;;16.12;84.87
59391;BME280;53405;57.012;40.984;2023-07-16T03:12:58;99746.06;;;16.13;85.19
59391;BME280;53405;57.012;40.984;2023-07-16T03:15:25;99741.63;;;16.06;85.13
59391;BME280;53405;57.012;40.984;2023-07-16T03:17:54;99735.31;;;16.07;85.05
59391;BME280;53405;57.012;40.984;2023-07-16T03:20:22;99737.97;;;16.07;85.16
59391;BME280;53405;57.012;40.984;2023-07-16T03:22:50;99741.97;;;16.17;84.69
59391;BME280;53405;57.012;40.984;2023-07-16T03:25:21;99741.19;;;16.10;84.71
59391;BME280;53405;57.012;40.984;2023-07-16T03:27:49;99752.38;;;16.18;84.70
59391;BME280;53405;57.012;40.984;2023-07-16T03:30:17;99740.84;;;16.24;84.05
59391;BME280;53405;57.012;40.984;2023-07-16T03:32:44;99739.63;;;16.27;84.45
59391;BME280;53405;57.012;40.984;2023-07-16T03:35:18;99750.97;;;16.34;84.25
59391;BME280;53405;57.012;40.984;2023-07-16T03:37:48;99740.34;;;16.34;83.82
59391;BME280;53405;57.012;40.984;2023-07-16T03:40:18;99744.19;;;16.38;83.83
59391;BME280;53405;57.012;40.984;2023-07-16T03:42:47;99746.44;;;16.53;83.18
59391;BME280;53405;57.012;40.984;2023-07-16T03:45:14;99751.19;;;16.51;83.58
59391;BME280;53405;57.012;40.984;2023-07-16T03:47:42;99763.16;;;16.60;82.71
59391;BME280;53405;57.012;40.984;2023-07-16T03:50:10;99758.19;;;16.64;83.12
59391;BME280;53405;57.012;40.984;2023-07-16T03:52:38;99764.16;;;16.59;83.20
59391;BME280;53405;57.012;40.984;2023-07-16T03:55:06;99768.63;;;16.77;82.45
59391;BME280;53405;57.012;40.984;2023-07-16T03:57:34;99774.66;;;16.73;82.54
59391;BME280;53405;57.012;40.984;2023-07-16T04:00:03;99761.78;;;16.88;82.11
59391;BME280;53405;57.012;40.984;2023-07-16T04:02:40;99770.00;;;16.87;81.92
59391;BME280;53405;57.012;40.984;2023-07-16T04:05:13;99771.03;;;16.86;82.81
59391;BME280;53405;57.012;40.984;2023-07-16T04:07:41;99780.41;;;16.88;82.32
59391;BME280;53405;57.012;40.984;2023-07-16T04:10:08;99772.38;;;17.07;81.91
59391;BME280;53405;57.012;40.984;2023-07-16T04:12:36;99774.94;;;17.02;82.42
59391;BME280;53405;57.012;40.984;2023-07-16T04:15:07;99761.97;;;17.05;82.12
59391;BME280;53405;57.012;40.984;2023-07-16T04:17:38;99769.06;;;17.11;82.06
59391;BME280;53405;57.012;40.984;2023-07-16T04:20:07;99787.56;;;17.18;80.73
59391;BME280;53405;57.012;40.984;2023-07-16T04:22:35;99786.91;;;17.23;80.87
59391;BME280;53405;57.012;40.984;2023-07-16T04:25:03;99784.81;;;17.25;80.71
59391;BME280;53405;57.012;40.984;2023-07-16T04:27:58;99785.19;;;17.28;80.57
59391;BME280;53405;57.012;40.984;2023-07-16T04:30:26;99782.44;;;17.35;80.78
59391;BME280;53405;57.012;40.984;2023-07-16T04:32:54;99778.88;;;17.53;80.51
59391;BME280;53405;57.012;40.984;2023-07-16T04:35:22;99781.88;;;17.45;80.52
59391;BME280;53405;57.012;40.984;2023-07-16T04:37:50;99760.81;;;17.43;80.18
59391;BME280;53405;57.012;40.984;2023-07-16T04:40:17;99774.75;;;17.69;79.70
59391;BME280;53405;57.012;40.984;2023-07-16T04:42:45;99776.13;;;17.72;79.40
59391;BME280;53405;57.012;40.984;2023-07-16T04:45:13;99772.53;;;17.78;78.69
59391;BME280;53405;57.012;40.984;2023-07-16T04:47:40;99772.47;;;17.96;78.66
59391;BME280;53405;57.012;40.984;2023-07-16T04:50:08;99771.63;;;17.84;79.11
59391;BME280;53405;57.012;40.984;2023-07-16T04:52:37;99775.38;;;17.95;78.63
59391;BME280;53405;57.012;40.984;2023-07-16T04:55:05;99770.72;;;18.02;78.03
59391;BME280;53405;57.012;40.984;2023-07-16T04:57:33;99773.06;;;18.10;77.43
59391;BME280;53405;57.012;40.984;2023-07-16T05:00:01;99767.25;;;18.25;77.08
59391;BME280;53405;57.012;40.984;2023-07-16T05:02:32;99777.31;;;18.35;77.20
59391;BME280;53405;57.012;40.984;2023-07-16T05:05:00;99773.94;;;18.51;76.64
59391;BME280;53405;57.012;40.984;2023-07-16T05:07:31;99778.31;;;18.57;75.83
59391;BME280;53405;57.012;40.984;2023-07-16T05:09:58;99772.69;;;18.71;75.07
59391;BME280;53405;57.012;40.984;2023-07-16T05:12:26;99767.81;;;18.80;74.40
59391;BME280;53405;57.012;40.984;2023-07-16T05:14:53;99774.28;;;18.84;75.34
59391;BME280;53405;57.012;40.984;2023-07-16T05:17:21;99771.94;;;18.99;73.67
59391;BME280;53405;57.012;40.984;2023-07-16T05:19:48;99770.19;;;19.05;73.53
59391;BME280;53405;57.012;40.984;2023-07-16T05:22:16;99765.16;;;19.08;73.62
59391;BME280;53405;57.012;40.984;2023-07-16T05:24:45;99765.56;;;19.17;73.84
59391;BME280;53405;57.012;40.984;2023-07-16T05:27:12;99773.22;;;19.25;73.59
59391;BME280;53405;57.012;40.984;2023-07-16T05:29:40;99774.81;;;19.26;73.46
59391;BME280;53405;57.012;40.984;2023-07-16T05:32:08;99746.09;;;19.17;73.53
59391;BME280;53405;57.012;40.984;2023-07-16T05:34:36;99771.53;;;19.36;73.17
59391;BME280;53405;57.012;40.984;2023-07-16T05:37:06;99766.59;;;19.45;72.85
59391;BME280;53405;57.012;40.984;2023-07-16T05:39:33;99770.56;;;19.59;71.98
59391;BME280;53405;57.012;40.984;2023-07-16T05:42:01;99767.56;;;19.56;72.04
59391;BME280;53405;57.012;40.984;2023-07-16T05:44:29;99775.47;;;19.67;72.02
59391;BME280;53405;57.012;40.984;2023-07-16T05:46:57;99767.69;;;19.78;71.26
59391;BME280;53405;57.012;40.984;2023-07-16T05:49:26;99766.63;;;19.79;70.74
59391;BME280;53405;57.012;40.984;2023-07-16T05:51:53;99767.19;;;19.81;71.07
59391;BME280;53405;57.012;40.984;2023-07-16T05:54:23;99766.94;;;19.82;70.42
59391;BME280;53405;57.012;40.984;2023-07-16T05:56:50;99769.75;;;19.93;70.43
59391;BME280;53405;57.012;40.984;2023-07-16T05:59:18;99766.44;;;20.02;69.56
59391;BME280;53405;57.012;40.984;2023-07-16T06:01:45;99772.41;;;20.10;69.26
59391;BME280;53405;57.012;40.984;2023-07-16T06:04:13;99771.97;;;20.18;69.31
59391;BME280;53405;57.012;40.984;2023-07-16T06:06:40;99773.59;;;20.19;68.88
59391;BME280;53405;57.012;40.984;2023-07-16T06:09:08;99773.59;;;20.19;69.06
59391;BME280;53405;57.012;40.984;2023-07-16T06:11:36;99771.00;;;20.24;69.00
59391;BME280;53405;57.012;40.984;2023-07-16T06:14:03;99769.44;;;20.28;69.21
59391;BME280;53405;57.012;40.984;2023-07-16T06:16:31;99772.56;;;20.42;69.00
59391;BME280;53405;57.012;40.984;2023-07-16T06:18:58;99771.66;;;20.53;68.54
59391;BME280;53405;57.012;40.984;2023-07-16T06:21:26;99776.78;;;20.60;67.68
59391;BME280;53405;57.012;40.984;2023-07-16T06:23:53;99779.31;;;20.67;67.58
59391;BME280;53405;57.012;40.984;2023-07-16T06:26:21;99762.50;;;20.71;67.31
59391;BME280;53405;57.012;40.984;2023-07-16T06:28:48;99771.00;;;20.90;67.10
59391;BME280;53405;57.012;40.984;2023-07-16T06:31:17;99771.94;;;21.01;65.93
59391;BME280;53405;57.012;40.984;2023-07-16T06:33:45;99747.78;;;20.96;64.74
59391;BME280;53405;57.012;40.984;2023-07-16T06:36:13;99769.41;;;21.17;64.97
59391;BME280;53405;57.012;40.984;2023-07-16T06:38:42;99758.72;;;21.22;64.91
59391;BME280;53405;57.012;40.984;2023-07-16T06:41:09;99771.41;;;21.32;62.77
59391;BME280;53405;57.012;40.984;2023-07-16T06:43:37;99766.13;;;21.37;61.91
59391;BME280;53405;57.012;40.984;2023-07-16T06:46:04;99776.41;;;21.50;62.11
59391;BME280;53405;57.012;40.984;2023-07-16T06:48:32;99774.56;;;21.51;60.65
59391;BME280;53405;57.012;40.984;2023-07-16T06:51:00;99769.09;;;21.40;60.49
59391;BME280;53405;57.012;40.984;2023-07-16T06:53:28;99770.63;;;21.36;60.62
59391;BME280;53405;57.012;40.984;2023-07-16T06:55:55;99771.53;;;21.47;61.38
59391;BME280;53405;57.012;40.984;2023-07-16T06:58:31;99769.94;;;21.46;62.12
59391;BME280;53405;57.012;40.984;2023-07-16T07:00:59;99769.81;;;21.63;61.74
59391;BME280;53405;57.012;40.984;2023-07-16T07:03:27;99769.88;;;21.68;62.15
59391;BME280;53405;57.012;40.984;2023-07-16T07:05:55;99768.06;;;21.79;61.20
59391;BME280;53405;57.012;40.984;2023-07-16T07:08:25;99772.06;;;21.76;61.60
59391;BME280;53405;57.012;40.984;2023-07-16T07:10:53;99780.75;;;21.56;61.08
59391;BME280;53405;57.012;40.984;2023-07-16T07:13:21;99772.72;;;21.56;61.44
59391;BME280;53405;57.012;40.984;2023-07-16T07:15:50;99777.09;;;21.68;61.68
59391;BME280;53405;57.012;40.984;2023-07-16T07:18:17;99773.97;;;21.76;61.73
59391;BME280;53405;57.012;40.984;2023-07-16T07:20:46;99761.16;;;21.88;60.83
59391;BME280;53405;57.012;40.984;2023-07-16T07:23:15;99773.31;;;22.01;59.49
59391;BME280;53405;57.012;40.984;2023-07-16T07:25:43;99780.63;;;22.16;60.04
59391;BME280;53405;57.012;40.984;2023-07-16T07:28:10;99771.19;;;22.03;60.95
59391;BME280;53405;57.012;40.984;2023-07-16T07:30:39;99772.88;;;21.77;61.38
59391;BME280;53405;57.012;40.984;2023-07-16T07:33:07;99778.50;;;21.75;60.89
59391;BME280;53405;57.012;40.984;2023-07-16T07:35:34;99769.94;;;21.78;61.55
59391;BME280;53405;57.012;40.984;2023-07-16T07:38:02;99773.22;;;21.86;61.39
59391;BME280;53405;57.012;40.984;2023-07-16T07:40:29;99782.28;;;21.79;61.57
59391;BME280;53405;57.012;40.984;2023-07-16T07:42:57;99778.50;;;21.75;60.38
59391;BME280;53405;57.012;40.984;2023-07-16T07:45:25;99758.53;;;21.56;60.33
59391;BME280;53405;57.012;40.984;2023-07-16T07:47:53;99760.22;;;21.67;60.38
59391;BME280;53405;57.012;40.984;2023-07-16T07:50:20;99761.78;;;21.63;60.60
59391;BME280;53405;57.012;40.984;2023-07-16T07:52:48;99728.31;;;21.33;60.80
59391;BME280;53405;57.012;40.984;2023-07-16T07:55:16;99790.47;;;21.68;61.22
59391;BME280;53405;57.012;40.984;2023-07-16T07:57:45;99780.66;;;21.78;60.61
59391;BME280;53405;57.012;40.984;2023-07-16T08:00:13;99793.06;;;21.90;60.23
59391;BME280;53405;57.012;40.984;2023-07-16T08:02:42;99775.94;;;21.96;58.70
59391;BME280;53405;57.012;40.984;2023-07-16T08:05:09;99778.97;;;22.05;57.52
59391;BME280;53405;57.012;40.984;2023-07-16T08:07:37;99784.03;;;22.01;58.01
59391;BME280;53405;57.012;40.984;2023-07-16T08:10:05;99778.09;;;21.99;58.69
59391;BME280;53405;57.012;40.984;2023-07-16T08:12:33;99764.19;;;22.02;58.83
59391;BME280;53405;57.012;40.984;2023-07-16T08:15:02;99768.06;;;22.22;58.96
59391;BME280;53405;57.012;40.984;2023-07-16T08:17:31;99769.19;;;22.31;58.38
59391;BME280;53405;57.012;40.984;2023-07-16T08:19:58;99781.09;;;22.45;57.88
59391;BME280;53405;57.012;40.984;2023-07-16T08:22:26;99778.88;;;22.37;57.79
59391;BME280;53405;57.012;40.984;2023-07-16T08:25:20;99778.88;;;22.32;58.31
59391;BME280;53405;57.012;40.984;2023-07-16T08:27:47;99770.63;;;22.49;59.75
59391;BME280;53405;57.012;40.984;2023-07-16T08:30:16;99747.66;;;22.73;58.50
59391;BME280;53405;57.012;40.984;2023-07-16T08:32:43;99785.38;;;23.35;56.77
59391;BME280;53405;57.012;40.984;2023-07-16T08:35:11;99780.25;;;23.34;55.13
59391;BME280;53405;57.012;40.984;2023-07-16T08:37:47;99793.41;;;23.25;55.69
59391;BME280;53405;57.012;40.984;2023-07-16T08:40:15;99781.50;;;22.95;57.50
59391;BME280;53405;57.012;40.984;2023-07-16T08:42:44;99780.16;;;22.92;57.01
59391;BME280;53405;57.012;40.984;2023-07-16T08:45:14;99790.34;;;22.90;57.48
59391;BME280;53405;57.012;40.984;2023-07-16T08:47:43;99784.41;;;22.78;58.37
59391;BME280;53405;57.012;40.984;2023-07-16T08:50:11;99747.06;;;22.61;57.41
59391;BME280;53405;57.012;40.984;2023-07-16T08:52:40;99776.34;;;22.78;56.65
59391;BME280;53405;57.012;40.984;2023-07-16T08:55:07;99761.47;;;22.40;56.86
59391;BME280;53405;57.012;40.984;2023-07-16T08:57:40;99775.03;;;22.23;57.47
59391;BME280;53405;57.012;40.984;2023-07-16T09:00:08;99780.09;;;22.14;59.45
59391;BME280;53405;57.012;40.984;2023-07-16T09:02:36;99784.47;;;22.30;59.11
59391;BME280;53405;57.012;40.984;2023-07-16T09:05:05;99792.88;;;22.44;58.78
59391;BME280;53405;57.012;40.984;2023-07-16T09:07:33;99774.63;;;22.41;59.21
59391;BME280;53405;57.012;40.984;2023-07-16T09:10:04;99783.25;;;22.48;58.38
59391;BME280;53405;57.012;40.984;2023-07-16T09:12:32;99776.53;;;22.51;58.88
59391;BME280;53405;57.012;40.984;2023-07-16T09:14:59;99770.09;;;22.47;58.51
59391;BME280;53405;57.012;40.984;2023-07-16T09:17:30;99788.38;;;22.55;58.46
59391;BME280;53405;57.012;40.984;2023-07-16T09:20:02;99766.38;;;22.58;57.98
59391;BME280;53405;57.012;40.984;2023-07-16T09:22:30;99782.06;;;23.07;56.07
59391;BME280;53405;57.012;40.984;2023-07-16T09:24:59;99787.72;;;23.11;57.41
59391;BME280;53405;57.012;40.984;2023-07-16T09:27:31;99768.69;;;23.23;57.23
59391;BME280;53405;57.012;40.984;2023-07-16T09:29:59;99791.53;;;23.36;56.61
59391;BME280;53405;57.012;40.984;2023-07-16T09:32:35;99792.63;;;23.40;56.18
59391;BME280;53405;57.012;40.984;2023-07-16T09:35:10;99790.97;;;23.28;55.50
59391;BME280;53405;57.012;40.984;2023-07-16T09:37:38;99773.50;;;23.11;56.65
59391;BME280;53405;57.012;40.984;2023-07-16T09:40:07;99771.59;;;23.01;56.03
59391;BME280;53405;57.012;40.984;2023-07-16T09:42:41;99788.81;;;23.25;54.95
59391;BME280;53405;57.012;40.984;2023-07-16T09:45:17;99797.19;;;23.34;55.08
59391;BME280;53405;57.012;40.984;2023-07-16T09:47:45;99794.47;;;23.19;54.58
59391;BME280;53405;57.012;40.984;2023-07-16T09:50:14;99767.34;;;23.20;53.82
59391;BME280;53405;57.012;40.984;2023-07-16T09:52:42;99793.66;;;23.23;54.42
59391;BME280;53405;57.012;40.984;2023-07-16T09:55:11;99804.97;;;23.36;54.01
59391;BME280;53405;57.012;40.984;2023-07-16T09:57:41;99801.75;;;23.59;53.45
59391;BME280;53405;57.012;40.984;2023-07-16T10:00:11;99802.84;;;23.84;54.01
59391;BME280;53405;57.012;40.984;2023-07-16T10:02:44;99781.84;;;23.91;54.07
59391;BME280;53405;57.012;40.984;2023-07-16T10:05:12;99796.31;;;24.21;53.15
59391;BME280;53405;57.012;40.984;2023-07-16T10:07:40;99797.13;;;24.16;52.75
59391;BME280;53405;57.012;40.984;2023-07-16T10:10:10;99777.81;;;23.99;52.48
59391;BME280;53405;57.012;40.984;2023-07-16T10:12:38;99799.88;;;23.91;52.16
59391;BME280;53405;57.012;40.984;2023-07-16T10:15:08;99799.06;;;23.59;53.19
59391;BME280;53405;57.012;40.984;2023-07-16T10:17:50;99795.28;;;23.55;54.13
59391;BME280;53405;57.012;40.984;2023-07-16T10:20:34;99778.38;;;23.55;53.55
59391;BME280;53405;57.012;40.984;2023-07-16T10:23:11;99792.91;;;23.85;53.04
59391;BME280;53405;57.012;40.984;2023-07-16T10:26:02;99789.59;;;24.18;51.80
59391;BME280;53405;57.012;40.984;2023-07-16T10:28:34;99778.06;;;24.03;52.09
59391;BME280;53405;57.012;40.984;2023-07-16T10:31:02;99771.09;;;23.96;51.91
59391;BME280;53405;57.012;40.984;2023-07-16T10:33:30;99784.53;;;24.02;53.71
59391;BME280;53405;57.012;40.984;2023-07-16T10:35:57;99783.94;;;24.20;52.61
59391;BME280;53405;57.012;40.984;2023-07-16T10:38:28;99776.97;;;24.19;52.87
59391;BME280;53405;57.012;40.984;2023-07-16T10:40:56;99766.47;;;24.17;52.74
59391;BME280;53405;57.012;40.984;2023-07-16T10:43:23;99791.44;;;24.33;52.30
59391;BME280;53405;57.012;40.984;2023-07-16T10:45:51;99795.28;;;24.17;51.70
59391;BME280;53405;57.012;40.984;2023-07-16T10:48:24;99792.06;;;24.05;52.71
59391;BME280;53405;57.012;40.984;2023-07-16T10:50:53;99779.16;;;24.07;52.04
59391;BME280;53405;57.012;40.984;2023-07-16T10:53:22;99787.25;;;23.91;51.01
59391;BME280;53405;57.012;40.984;2023-07-16T10:55:50;99786.19;;;23.87;51.20
59391;BME280;53405;57.012;40.984;2023-07-16T10:58:17;99796.91;;;23.77;51.53
59391;BME280;53405;57.012;40.984;2023-07-16T11:00:46;99804.19;;;23.61;52.85
59391;BME280;53405;57.012;40.984;2023-07-16T11:03:15;99788.03;;;23.30;54.00
59391;BME280;53405;57.012;40.984;2023-07-16T11:05:47;99800.66;;;23.30;54.14
59391;BME280;53405;57.012;40.984;2023-07-16T11:08:24;99784.50;;;23.09;54.28
59391;BME280;53405;57.012;40.984;2023-07-16T11:10:58;99801.13;;;23.06;55.25
59391;BME280;53405;57.012;40.984;2023-07-16T11:13:31;99788.22;;;22.92;55.43
59391;BME280;53405;57.012;40.984;2023-07-16T11:16:09;99796.53;;;22.96;55.97
59391;BME280;53405;57.012;40.984;2023-07-16T11:18:37;99787.13;;;22.83;55.32
59391;BME280;53405;57.012;40.984;2023-07-16T11:21:05;99795.19;;;22.83;56.46
59391;BME280;53405;57.012;40.984;2023-07-16T11:23:36;99793.81;;;22.76;56.08
59391;BME280;53405;57.012;40.984;2023-07-16T11:26:03;99799.94;;;22.66;55.96
59391;BME280;53405;57.012;40.984;2023-07-16T11:28:41;99792.41;;;22.63;55.74
59391;BME280;53405;57.012;40.984;2023-07-16T11:31:13;99784.91;;;22.60;55.78
59391;BME280;53405;57.012;40.984;2023-07-16T11:33:43;99800.22;;;22.69;56.51
59391;BME280;53405;57.012;40.984;2023-07-16T11:36:11;99802.13;;;22.74;56.64
59391;BME280;53405;57.012;40.984;2023-07-16T11:38:39;99802.38;;;22.78;56.64
59391;BME280;53405;57.012;40.984;2023-07-16T11:41:07;99798.09;;;22.77;57.50
59391;BME280;53405;57.012;40.984;2023-07-16T11:43:35;99792.81;;;23.07;57.70
59391;BME280;53405;57.012;40.984;2023-07-16T11:46:14;99795.56;;;23.28;57.45
59391;BME280;53405;57.012;40.984;2023-07-16T11:48:43;99802.00;;;23.48;56.70
59391;BME280;53405;57.012;40.984;2023-07-16T11:51:11;99801.50;;;23.87;55.35
59391;BME280;53405;57.012;40.984;2023-07-16T11:53:39;99795.31;;;23.81;55.83
59391;BME280;53405;57.012;40.984;2023-07-16T11:56:07;99773.00;;;23.50;56.27
59391;BME280;53405;57.012;40.984;2023-07-16T11:58:34;99789.94;;;23.40;57.56
59391;BME280;53405;57.012;40.984;2023-07-16T12:01:02;99761.97;;;23.10;57.22
59391;BME280;53405;57.012;40.984;2023-07-16T12:03:32;99792.56;;;23.14;57.61
59391;BME280;53405;57.012;40.984;2023-07-16T12:05:59;99790.13;;;23.07;58.17
59391;BME280;53405;57.012;40.984;2023-07-16T12:08:27;99799.03;;;23.13;57.73
59391;BME280;53405;57.012;40.984;2023-07-16T12:10:55;99791.72;;;22.98;57.76
59391;BME280;53405;57.012;40.984;2023-07-16T12:13:22;99799.44;;;22.79;58.22
59391;BME280;53405;57.012;40.984;2023-07-16T12:16:15;99797.56;;;22.80;58.26
59391;BME280;53405;57.012;40.984;2023-07-16T12:18:43;99794.91;;;22.90;58.68
59391;BME280;53405;57.012;40.984;2023-07-16T12:21:10;99798.00;;;23.86;55.61
59391;BME280;53405;57.012;40.984;2023-07-16T12:23:38;99793.75;;;24.66;53.48
59391;BME280;53405;57.012;40.984;2023-07-16T12:26:06;99789.56;;;24.99;50.43
59391;BME280;53405;57.012;40.984;2023-07-16T12:28:35;99807.06;;;24.97;50.52
59391;BME280;53405;57.012;40.984;2023-07-16T12:31:03;99788.44;;;24.45;52.41
59391;BME280;53405;57.012;40.984;2023-07-16T12:33:31;99797.13;;;24.22;53.16
59391;BME280;53405;57.012;40.984;2023-07-16T12:36:09;99799.59;;;23.82;54.46
59391;BME280;53405;57.012;40.984;2023-07-16T12:38:37;99802.81;;;23.79;55.16
59391;BME280;53405;57.012;40.984;2023-07-16T12:41:05;99796.38;;;23.75;54.70
59391;BME280;53405;57.012;40.984;2023-07-16T12:43:33;99789.94;;;23.86;54.96
59391;BME280;53405;57.012;40.984;2023-07-16T12:46:03;99786.13;;;24.03;55.70
59391;BME280;53405;57.012;40.984;2023-07-16T12:48:31;99798.25;;;24.05;55.68
59391;BME280;53405;57.012;40.984;2023-07-16T12:50:59;99800.38;;;23.77;55.47
59391;BME280;53405;57.012;40.984;2023-07-16T12:53:28;99822.72;;;23.42;58.50
59391;BME280;53405;57.012;40.984;2023-07-16T12:55:55;99820.44;;;22.92;65.64
59391;BME280;53405;57.012;40.984;2023-07-16T12:58:23;99804.09;;;22.36;68.97
59391;BME280;53405;57.012;40.984;2023-07-16T13:00:52;99803.13;;;22.10;70.89
59391;BME280;53405;57.012;40.984;2023-07-16T13:03:20;99803.72;;;21.79;73.70
59391;BME280;53405;57.012;40.984;2023-07-16T13:05:49;99815.88;;;21.60;74.78
59391;BME280;53405;57.012;40.984;2023-07-16T13:08:16;99818.47;;;21.50;74.56